Powers Lake, Wisconsin
Current Conditions -  °F | °C
As of 7:15 PM on Friday 28 Nov 2014 (Local Time) from KBUU Reporting Station
Overcast Overcast  
Wind Chill: 22°   Ceiling: 1600
Heat Index: 29°   Visibility: 10mi
Dew Point: 25°   Wind: 6mph
Humidity: 88%   Direction: 160°SSE
Pressure: 29.92"   Gusts: NA
Location:  42.54°N, 88.3°W
Report Text: KBUU 290115Z AUTO 16005KT 10SM OVC016 M02/M04 A2992 RMK AO2 T10191037
Loading
Personal Weather Stations






























Interactive Weather Map New forecast layout! Learn more

10-Day Weather Forecast

Advertisements
Track Severe Weather on mobile